sensor_id;sensor_type;location;lat;lon;timestamp;temperature;humidity
14995;DHT22;7593;49.006;8.372;2023-11-21T00:01:41;8.90;99.90
14995;DHT22;7593;49.006;8.372;2023-11-21T00:04:08;8.90;99.90
14995;DHT22;7593;49.006;8.372;2023-11-21T00:06:35;8.90;99.90
14995;DHT22;7593;49.006;8.372;2023-11-21T00:09:02;8.90;99.90
14995;DHT22;7593;49.006;8.372;2023-11-21T00:11:29;8.90;99.90
14995;DHT22;7593;49.006;8.372;2023-11-21T00:13:55;8.90;99.90
14995;DHT22;7593;49.006;8.372;2023-11-21T00:16:22;8.90;99.90
14995;DHT22;7593;49.006;8.372;2023-11-21T00:18:52;8.90;99.90
14995;DHT22;7593;49.006;8.372;2023-11-21T00:21:18;8.90;99.90
14995;DHT22;7593;49.006;8.372;2023-11-21T00:23:45;8.90;99.90
14995;DHT22;7593;49.006;8.372;2023-11-21T00:26:12;9.00;99.90
14995;DHT22;7593;49.006;8.372;2023-11-21T00:28:39;9.00;99.90
14995;DHT22;7593;49.006;8.372;2023-11-21T00:31:07;9.00;99.90
14995;DHT22;7593;49.006;8.372;2023-11-21T00:33:34;9.00;99.90
14995;DHT22;7593;49.006;8.372;2023-11-21T00:36:02;9.10;99.90
14995;DHT22;7593;49.006;8.372;2023-11-21T00:38:29;9.10;99.90
14995;DHT22;7593;49.006;8.372;2023-11-21T00:40:56;9.10;99.90
14995;DHT22;7593;49.006;8.372;2023-11-21T00:43:22;9.10;99.90
14995;DHT22;7593;49.006;8.372;2023-11-21T00:45:49;9.20;99.90
14995;DHT22;7593;49.006;8.372;2023-11-21T00:48:16;9.20;99.90
14995;DHT22;7593;49.006;8.372;2023-11-21T00:50:43;9.20;99.90
14995;DHT22;7593;49.006;8.372;2023-11-21T00:53:12;9.30;99.90
14995;DHT22;7593;49.006;8.372;2023-11-21T00:55:38;9.30;99.90
14995;DHT22;7593;49.006;8.372;2023-11-21T00:58:06;9.30;99.90
14995;DHT22;7593;49.006;8.372;2023-11-21T01:00:33;9.30;99.90
14995;DHT22;7593;49.006;8.372;2023-11-21T01:03:00;9.30;99.90
14995;DHT22;7593;49.006;8.372;2023-11-21T01:05:27;9.30;99.90
14995;DHT22;7593;49.006;8.372;2023-11-21T01:07:55;9.30;99.90
14995;DHT22;7593;49.006;8.372;2023-11-21T01:10:23;9.30;99.90
14995;DHT22;7593;49.006;8.372;2023-11-21T01:12:50;9.30;99.90
14995;DHT22;7593;49.006;8.372;2023-11-21T01:15:17;9.30;99.90
14995;DHT22;7593;49.006;8.372;2023-11-21T01:17:44;9.40;99.90
14995;DHT22;7593;49.006;8.372;2023-11-21T01:20:11;9.40;99.90
14995;DHT22;7593;49.006;8.372;2023-11-21T01:22:38;9.30;99.90
14995;DHT22;7593;49.006;8.372;2023-11-21T01:25:05;9.30;99.90
14995;DHT22;7593;49.006;8.372;2023-11-21T01:27:34;9.40;99.90
14995;DHT22;7593;49.006;8.372;2023-11-21T01:30:01;9.30;99.90
14995;DHT22;7593;49.006;8.372;2023-11-21T01:32:28;9.20;99.90
14995;DHT22;7593;49.006;8.372;2023-11-21T01:34:55;9.20;99.90
14995;DHT22;7593;49.006;8.372;2023-11-21T01:37:21;9.10;99.90
14995;DHT22;7593;49.006;8.372;2023-11-21T01:39:48;9.10;99.90
14995;DHT22;7593;49.006;8.372;2023-11-21T01:42:15;9.10;99.90
14995;DHT22;7593;49.006;8.372;2023-11-21T01:44:43;9.10;99.90
14995;DHT22;7593;49.006;8.372;2023-11-21T01:47:10;9.10;99.90
14995;DHT22;7593;49.006;8.372;2023-11-21T01:49:37;9.00;99.90
14995;DHT22;7593;49.006;8.372;2023-11-21T01:52:05;8.90;99.90
14995;DHT22;7593;49.006;8.372;2023-11-21T01:54:32;8.90;99.90
14995;DHT22;7593;49.006;8.372;2023-11-21T01:57:00;8.80;99.90
14995;DHT22;7593;49.006;8.372;2023-11-21T01:59:34;8.80;99.90
14995;DHT22;7593;49.006;8.372;2023-11-21T02:02:03;8.80;99.90
14995;DHT22;7593;49.006;8.372;2023-11-21T02:04:32;8.70;99.90
14995;DHT22;7593;49.006;8.372;2023-11-21T02:06:59;8.70;99.90
14995;DHT22;7593;49.006;8.372;2023-11-21T02:09:26;8.70;99.90
14995;DHT22;7593;49.006;8.372;2023-11-21T02:11:54;8.70;99.90
14995;DHT22;7593;49.006;8.372;2023-11-21T02:14:21;8.60;99.90
14995;DHT22;7593;49.006;8.372;2023-11-21T02:16:48;8.60;99.90
14995;DHT22;7593;49.006;8.372;2023-11-21T02:19:19;8.60;99.90
14995;DHT22;7593;49.006;8.372;2023-11-21T02:21:49;8.60;99.90
14995;DHT22;7593;49.006;8.372;2023-11-21T02:24:19;8.60;99.90
14995;DHT22;7593;49.006;8.372;2023-11-21T02:26:45;8.60;99.90
14995;DHT22;7593;49.006;8.372;2023-11-21T02:29:12;8.50;99.90
14995;DHT22;7593;49.006;8.372;2023-11-21T02:31:39;8.50;99.90
14995;DHT22;7593;49.006;8.372;2023-11-21T02:34:13;8.50;99.90
14995;DHT22;7593;49.006;8.372;2023-11-21T02:36:40;8.50;99.90
14995;DHT22;7593;49.006;8.372;2023-11-21T02:39:08;8.40;99.90
14995;DHT22;7593;49.006;8.372;2023-11-21T02:41:36;8.40;99.90
14995;DHT22;7593;49.006;8.372;2023-11-21T02:44:03;8.40;99.90
14995;DHT22;7593;49.006;8.372;2023-11-21T02:46:31;8.40;99.90
14995;DHT22;7593;49.006;8.372;2023-11-21T02:48:59;8.30;99.90
14995;DHT22;7593;49.006;8.372;2023-11-21T02:51:26;8.40;99.90
14995;DHT22;7593;49.006;8.372;2023-11-21T02:53:52;8.30;99.90
14995;DHT22;7593;49.006;8.372;2023-11-21T02:56:20;8.30;99.90
14995;DHT22;7593;49.006;8.372;2023-11-21T02:58:48;8.30;99.90
14995;DHT22;7593;49.006;8.372;2023-11-21T03:01:15;8.30;99.90
14995;DHT22;7593;49.006;8.372;2023-11-21T03:03:42;8.30;99.90
14995;DHT22;7593;49.006;8.372;2023-11-21T03:06:09;8.30;99.90
14995;DHT22;7593;49.006;8.372;2023-11-21T03:08:36;8.30;99.90
14995;DHT22;7593;49.006;8.372;2023-11-21T03:11:03;8.30;99.90
14995;DHT22;7593;49.006;8.372;2023-11-21T03:13:29;8.30;99.90
14995;DHT22;7593;49.006;8.372;2023-11-21T03:15:58;8.30;99.90
14995;DHT22;7593;49.006;8.372;2023-11-21T03:18:24;8.30;99.90
14995;DHT22;7593;49.006;8.372;2023-11-21T03:20:52;8.30;99.90
14995;DHT22;7593;49.006;8.372;2023-11-21T03:23:19;8.30;99.90
14995;DHT22;7593;49.006;8.372;2023-11-21T03:25:46;8.30;99.90
14995;DHT22;7593;49.006;8.372;2023-11-21T03:28:12;8.30;99.90
14995;DHT22;7593;49.006;8.372;2023-11-21T03:30:39;8.30;99.90
14995;DHT22;7593;49.006;8.372;2023-11-21T03:33:07;8.30;99.90
14995;DHT22;7593;49.006;8.372;2023-11-21T03:35:34;8.30;99.90
14995;DHT22;7593;49.006;8.372;2023-11-21T03:38:02;8.30;99.90
14995;DHT22;7593;49.006;8.372;2023-11-21T03:40:28;8.30;99.90
14995;DHT22;7593;49.006;8.372;2023-11-21T03:42:56;8.40;99.90
14995;DHT22;7593;49.006;8.372;2023-11-21T03:45:23;8.30;99.90
14995;DHT22;7593;49.006;8.372;2023-11-21T03:47:50;8.30;99.90
14995;DHT22;7593;49.006;8.372;2023-11-21T03:50:18;8.30;99.90
14995;DHT22;7593;49.006;8.372;2023-11-21T03:52:45;8.40;99.90
14995;DHT22;7593;49.006;8.372;2023-11-21T03:55:12;8.30;99.90
14995;DHT22;7593;49.006;8.372;2023-11-21T03:57:38;8.30;99.90
14995;DHT22;7593;49.006;8.372;2023-11-21T04:00:06;8.30;99.90
14995;DHT22;7593;49.006;8.372;2023-11-21T04:02:35;8.40;99.90
14995;DHT22;7593;49.006;8.372;2023-11-21T04:05:02;8.30;99.90
14995;DHT22;7593;49.006;8.372;2023-11-21T04:07:31;8.30;99.90
14995;DHT22;7593;49.006;8.372;2023-11-21T04:09:58;8.40;99.90
14995;DHT22;7593;49.006;8.372;2023-11-21T04:12:25;8.40;99.90
14995;DHT22;7593;49.006;8.372;2023-11-21T04:14:52;8.40;99.90
14995;DHT22;7593;49.006;8.372;2023-11-21T04:17:19;8.40;99.90
14995;DHT22;7593;49.006;8.372;2023-11-21T04:19:45;8.40;99.90
14995;DHT22;7593;49.006;8.372;2023-11-21T04:22:12;8.40;99.90
14995;DHT22;7593;49.006;8.372;2023-11-21T04:24:40;8.40;99.90
14995;DHT22;7593;49.006;8.372;2023-11-21T04:27:07;8.40;99.90
14995;DHT22;7593;49.006;8.372;2023-11-21T04:29:34;8.40;99.90
14995;DHT22;7593;49.006;8.372;2023-11-21T04:32:01;8.40;99.90
14995;DHT22;7593;49.006;8.372;2023-11-21T04:34:28;8.40;99.90
14995;DHT22;7593;49.006;8.372;2023-11-21T04:36:56;8.50;99.90
14995;DHT22;7593;49.006;8.372;2023-11-21T04:39:23;8.50;99.90
14995;DHT22;7593;49.006;8.372;2023-11-21T04:41:51;8.50;99.90
14995;DHT22;7593;49.006;8.372;2023-11-21T04:44:18;8.50;99.90
14995;DHT22;7593;49.006;8.372;2023-11-21T04:46:45;8.50;99.90
14995;DHT22;7593;49.006;8.372;2023-11-21T04:49:11;8.50;99.90
14995;DHT22;7593;49.006;8.372;2023-11-21T04:51:38;8.50;99.90
14995;DHT22;7593;49.006;8.372;2023-11-21T04:54:05;8.50;99.90
14995;DHT22;7593;49.006;8.372;2023-11-21T04:56:32;8.40;99.90
14995;DHT22;7593;49.006;8.372;2023-11-21T04:59:00;8.50;99.90
14995;DHT22;7593;49.006;8.372;2023-11-21T05:01:27;8.40;99.90
14995;DHT22;7593;49.006;8.372;2023-11-21T05:03:54;8.40;99.90
14995;DHT22;7593;49.006;8.372;2023-11-21T05:06:22;8.40;99.90
14995;DHT22;7593;49.006;8.372;2023-11-21T05:08:49;8.40;99.90
14995;DHT22;7593;49.006;8.372;2023-11-21T05:11:23;8.40;99.90
14995;DHT22;7593;49.006;8.372;2023-11-21T05:13:50;8.40;99.90
14995;DHT22;7593;49.006;8.372;2023-11-21T05:16:19;8.40;99.90
14995;DHT22;7593;49.006;8.372;2023-11-21T05:18:48;8.40;99.90
14995;DHT22;7593;49.006;8.372;2023-11-21T05:21:15;8.40;99.90
14995;DHT22;7593;49.006;8.372;2023-11-21T05:23:42;8.40;99.90
14995;DHT22;7593;49.006;8.372;2023-11-21T05:26:09;8.40;99.90
14995;DHT22;7593;49.006;8.372;2023-11-21T05:28:36;8.40;99.90
14995;DHT22;7593;49.006;8.372;2023-11-21T05:31:03;8.40;99.90
14995;DHT22;7593;49.006;8.372;2023-11-21T05:33:31;8.40;99.90
14995;DHT22;7593;49.006;8.372;2023-11-21T05:35:59;8.40;99.90
14995;DHT22;7593;49.006;8.372;2023-11-21T05:38:26;8.40;99.90
14995;DHT22;7593;49.006;8.372;2023-11-21T05:40:53;8.40;99.90
14995;DHT22;7593;49.006;8.372;2023-11-21T05:43:19;8.40;99.90
14995;DHT22;7593;49.006;8.372;2023-11-21T05:45:46;8.40;99.90
14995;DHT22;7593;49.006;8.372;2023-11-21T05:48:13;8.40;99.90
14995;DHT22;7593;49.006;8.372;2023-11-21T05:50:42;8.40;99.90
14995;DHT22;7593;49.006;8.372;2023-11-21T05:53:09;8.40;99.90
14995;DHT22;7593;49.006;8.372;2023-11-21T05:55:37;8.40;99.90
14995;DHT22;7593;49.006;8.372;2023-11-21T05:58:04;8.40;99.90
14995;DHT22;7593;49.006;8.372;2023-11-21T06:00:32;8.40;99.90
14995;DHT22;7593;49.006;8.372;2023-11-21T06:02:59;8.40;99.90
14995;DHT22;7593;49.006;8.372;2023-11-21T06:05:26;8.40;99.90
14995;DHT22;7593;49.006;8.372;2023-11-21T06:07:55;8.40;99.90
14995;DHT22;7593;49.006;8.372;2023-11-21T06:10:24;8.40;99.90
14995;DHT22;7593;49.006;8.372;2023-11-21T06:12:51;8.30;99.90
14995;DHT22;7593;49.006;8.372;2023-11-21T06:15:18;8.40;99.90
14995;DHT22;7593;49.006;8.372;2023-11-21T06:17:47;8.40;99.90
14995;DHT22;7593;49.006;8.372;2023-11-21T06:20:17;8.40;99.90
14995;DHT22;7593;49.006;8.372;2023-11-21T06:22:46;8.40;99.90
14995;DHT22;7593;49.006;8.372;2023-11-21T06:25:14;8.40;99.90
14995;DHT22;7593;49.006;8.372;2023-11-21T06:27:42;8.40;99.90
14995;DHT22;7593;49.006;8.372;2023-11-21T06:30:10;8.30;99.90
14995;DHT22;7593;49.006;8.372;2023-11-21T06:32:38;8.40;99.90
14995;DHT22;7593;49.006;8.372;2023-11-21T06:35:06;8.30;99.90
14995;DHT22;7593;49.006;8.372;2023-11-21T06:37:34;8.30;99.90
14995;DHT22;7593;49.006;8.372;2023-11-21T06:40:01;8.30;99.90
14995;DHT22;7593;49.006;8.372;2023-11-21T06:42:31;8.30;99.90
14995;DHT22;7593;49.006;8.372;2023-11-21T06:44:58;8.40;99.90
14995;DHT22;7593;49.006;8.372;2023-11-21T06:47:29;8.40;99.90
14995;DHT22;7593;49.006;8.372;2023-11-21T06:49:56;8.40;99.90
14995;DHT22;7593;49.006;8.372;2023-11-21T06:52:23;8.40;99.90
14995;DHT22;7593;49.006;8.372;2023-11-21T06:54:50;8.40;99.90
14995;DHT22;7593;49.006;8.372;2023-11-21T06:57:17;8.40;99.90
14995;DHT22;7593;49.006;8.372;2023-11-21T06:59:45;8.40;99.90
14995;DHT22;7593;49.006;8.372;2023-11-21T07:02:12;8.40;99.90
14995;DHT22;7593;49.006;8.372;2023-11-21T07:04:38;8.40;99.90
14995;DHT22;7593;49.006;8.372;2023-11-21T07:07:06;8.40;99.90
14995;DHT22;7593;49.006;8.372;2023-11-21T07:09:33;8.50;99.90
14995;DHT22;7593;49.006;8.372;2023-11-21T07:12:00;8.50;99.90
14995;DHT22;7593;49.006;8.372;2023-11-21T07:14:29;8.50;99.90
14995;DHT22;7593;49.006;8.372;2023-11-21T07:16:57;8.50;99.90
14995;DHT22;7593;49.006;8.372;2023-11-21T07:19:23;8.50;99.90
14995;DHT22;7593;49.006;8.372;2023-11-21T07:21:50;8.50;99.90
14995;DHT22;7593;49.006;8.372;2023-11-21T07:24:17;8.60;99.90
14995;DHT22;7593;49.006;8.372;2023-11-21T07:26:44;8.50;99.90
14995;DHT22;7593;49.006;8.372;2023-11-21T07:29:11;8.60;99.90
14995;DHT22;7593;49.006;8.372;2023-11-21T07:31:38;8.60;99.90
14995;DHT22;7593;49.006;8.372;2023-11-21T07:34:08;8.70;99.90
14995;DHT22;7593;49.006;8.372;2023-11-21T07:36:34;8.70;99.90
14995;DHT22;7593;49.006;8.372;2023-11-21T07:39:01;8.80;99.90
14995;DHT22;7593;49.006;8.372;2023-11-21T07:41:28;8.80;99.90
14995;DHT22;7593;49.006;8.372;2023-11-21T07:43:55;8.80;99.90
14995;DHT22;7593;49.006;8.372;2023-11-21T07:46:22;8.70;99.90
14995;DHT22;7593;49.006;8.372;2023-11-21T07:48:49;8.70;99.90
14995;DHT22;7593;49.006;8.372;2023-11-21T07:51:19;8.70;99.90
14995;DHT22;7593;49.006;8.372;2023-11-21T07:53:46;8.60;99.90
14995;DHT22;7593;49.006;8.372;2023-11-21T07:56:12;8.60;99.90
14995;DHT22;7593;49.006;8.372;2023-11-21T07:58:39;8.70;99.90
14995;DHT22;7593;49.006;8.372;2023-11-21T08:01:06;8.70;99.90
14995;DHT22;7593;49.006;8.372;2023-11-21T08:03:33;8.70;99.90
14995;DHT22;7593;49.006;8.372;2023-11-21T08:06:00;8.60;99.90
14995;DHT22;7593;49.006;8.372;2023-11-21T08:08:30;8.70;99.90
14995;DHT22;7593;49.006;8.372;2023-11-21T08:10:57;8.60;99.90
14995;DHT22;7593;49.006;8.372;2023-11-21T08:13:25;8.60;99.90
14995;DHT22;7593;49.006;8.372;2023-11-21T08:15:54;8.60;99.90
14995;DHT22;7593;49.006;8.372;2023-11-21T08:18:21;8.70;99.90
14995;DHT22;7593;49.006;8.372;2023-11-21T08:20:48;8.70;99.90
14995;DHT22;7593;49.006;8.372;2023-11-21T08:23:15;8.70;99.90
14995;DHT22;7593;49.006;8.372;2023-11-21T08:25:44;8.70;99.90
14995;DHT22;7593;49.006;8.372;2023-11-21T08:28:11;8.70;99.90
14995;DHT22;7593;49.006;8.372;2023-11-21T08:30:37;8.70;99.90
14995;DHT22;7593;49.006;8.372;2023-11-21T08:33:05;8.80;99.90
14995;DHT22;7593;49.006;8.372;2023-11-21T08:35:31;8.80;99.90
14995;DHT22;7593;49.006;8.372;2023-11-21T08:37:58;8.80;99.90
14995;DHT22;7593;49.006;8.372;2023-11-21T08:40:25;8.90;99.90
14995;DHT22;7593;49.006;8.372;2023-11-21T08:42:53;8.90;99.90
14995;DHT22;7593;49.006;8.372;2023-11-21T08:45:20;8.90;99.90
14995;DHT22;7593;49.006;8.372;2023-11-21T08:47:48;8.90;99.90
14995;DHT22;7593;49.006;8.372;2023-11-21T08:50:14;8.90;99.90
14995;DHT22;7593;49.006;8.372;2023-11-21T08:52:41;9.00;99.90
14995;DHT22;7593;49.006;8.372;2023-11-21T08:55:08;9.00;99.90
14995;DHT22;7593;49.006;8.372;2023-11-21T08:57:38;9.00;99.90
14995;DHT22;7593;49.006;8.372;2023-11-21T09:00:08;9.10;99.90
14995;DHT22;7593;49.006;8.372;2023-11-21T09:02:37;9.10;99.90
14995;DHT22;7593;49.006;8.372;2023-11-21T09:05:05;9.10;99.90
14995;DHT22;7593;49.006;8.372;2023-11-21T09:07:32;9.10;99.90
14995;DHT22;7593;49.006;8.372;2023-11-21T09:09:59;9.10;99.90
14995;DHT22;7593;49.006;8.372;2023-11-21T09:12:25;9.10;99.90
14995;DHT22;7593;49.006;8.372;2023-11-21T09:14:52;9.10;99.90
14995;DHT22;7593;49.006;8.372;2023-11-21T09:17:20;9.20;99.90
14995;DHT22;7593;49.006;8.372;2023-11-21T09:19:47;9.20;99.90
14995;DHT22;7593;49.006;8.372;2023-11-21T09:22:17;9.20;99.90
14995;DHT22;7593;49.006;8.372;2023-11-21T09:24:44;9.20;99.90
14995;DHT22;7593;49.006;8.372;2023-11-21T09:27:11;9.20;99.90
14995;DHT22;7593;49.006;8.372;2023-11-21T09:29:37;9.20;99.90
14995;DHT22;7593;49.006;8.372;2023-11-21T09:32:05;9.30;99.90
14995;DHT22;7593;49.006;8.372;2023-11-21T09:34:35;9.20;99.90
14995;DHT22;7593;49.006;8.372;2023-11-21T09:37:03;9.20;99.90
14995;DHT22;7593;49.006;8.372;2023-11-21T09:39:31;9.20;99.90
14995;DHT22;7593;49.006;8.372;2023-11-21T09:42:04;9.20;99.90
14995;DHT22;7593;49.006;8.372;2023-11-21T09:44:41;9.20;99.90
14995;DHT22;7593;49.006;8.372;2023-11-21T09:47:10;9.30;99.90
14995;DHT22;7593;49.006;8.372;2023-11-21T09:49:43;9.20;99.90
14995;DHT22;7593;49.006;8.372;2023-11-21T09:52:18;9.20;99.90
14995;DHT22;7593;49.006;8.372;2023-11-21T09:54:45;9.20;99.90
14995;DHT22;7593;49.006;8.372;2023-11-21T09:57:13;9.20;99.90
14995;DHT22;7593;49.006;8.372;2023-11-21T09:59:41;9.20;99.90
14995;DHT22;7593;49.006;8.372;2023-11-21T10:02:09;9.30;99.90
14995;DHT22;7593;49.006;8.372;2023-11-21T10:04:38;9.30;99.90
14995;DHT22;7593;49.006;8.372;2023-11-21T10:07:06;9.30;99.90
14995;DHT22;7593;49.006;8.372;2023-11-21T10:09:35;9.30;99.90
14995;DHT22;7593;49.006;8.372;2023-11-21T10:12:04;9.30;99.90
14995;DHT22;7593;49.006;8.372;2023-11-21T10:14:34;9.30;99.90
14995;DHT22;7593;49.006;8.372;2023-11-21T10:17:02;9.30;99.90
14995;DHT22;7593;49.006;8.372;2023-11-21T10:19:30;9.30;99.90
14995;DHT22;7593;49.006;8.372;2023-11-21T10:21:58;9.30;99.90
14995;DHT22;7593;49.006;8.372;2023-11-21T10:24:28;9.30;99.90
14995;DHT22;7593;49.006;8.372;2023-11-21T10:26:54;9.30;99.90
14995;DHT22;7593;49.006;8.372;2023-11-21T10:29:21;9.30;99.90
14995;DHT22;7593;49.006;8.372;2023-11-21T10:31:49;9.30;99.90
14995;DHT22;7593;49.006;8.372;2023-11-21T10:34:18;9.30;99.90
14995;DHT22;7593;49.006;8.372;2023-11-21T10:36:45;9.30;99.90
14995;DHT22;7593;49.006;8.372;2023-11-21T10:39:14;9.30;99.90
14995;DHT22;7593;49.006;8.372;2023-11-21T10:41:45;9.20;99.90
14995;DHT22;7593;49.006;8.372;2023-11-21T10:44:14;9.20;99.90
14995;DHT22;7593;49.006;8.372;2023-11-21T10:46:45;9.20;99.90
14995;DHT22;7593;49.006;8.372;2023-11-21T10:49:16;9.20;99.90
14995;DHT22;7593;49.006;8.372;2023-11-21T10:51:43;9.20;99.90
14995;DHT22;7593;49.006;8.372;2023-11-21T10:54:10;9.20;99.90
14995;DHT22;7593;49.006;8.372;2023-11-21T10:56:39;9.20;99.90
14995;DHT22;7593;49.006;8.372;2023-11-21T10:59:08;9.20;99.90
14995;DHT22;7593;49.006;8.372;2023-11-21T11:01:37;9.10;99.90
14995;DHT22;7593;49.006;8.372;2023-11-21T11:04:06;9.10;99.90
14995;DHT22;7593;49.006;8.372;2023-11-21T11:06:41;9.10;99.90
14995;DHT22;7593;49.006;8.372;2023-11-21T11:09:08;9.20;99.90
14995;DHT22;7593;49.006;8.372;2023-11-21T11:11:38;9.20;99.90
14995;DHT22;7593;49.006;8.372;2023-11-21T11:14:09;9.20;99.90
14995;DHT22;7593;49.006;8.372;2023-11-21T11:16:38;9.20;99.90
14995;DHT22;7593;49.006;8.372;2023-11-21T11:19:06;9.30;99.90
14995;DHT22;7593;49.006;8.372;2023-11-21T11:21:43;9.30;99.90
14995;DHT22;7593;49.006;8.372;2023-11-21T11:24:36;9.20;99.90
14995;DHT22;7593;49.006;8.372;2023-11-21T11:27:15;9.20;99.90
14995;DHT22;7593;49.006;8.372;2023-11-21T11:29:55;9.20;99.90
14995;DHT22;7593;49.006;8.372;2023-11-21T11:32:30;9.20;99.90
14995;DHT22;7593;49.006;8.372;2023-11-21T11:35:05;9.20;99.90
14995;DHT22;7593;49.006;8.372;2023-11-21T11:37:34;9.10;99.90
14995;DHT22;7593;49.006;8.372;2023-11-21T11:40:00;9.20;99.90
14995;DHT22;7593;49.006;8.372;2023-11-21T11:42:28;9.20;99.90
14995;DHT22;7593;49.006;8.372;2023-11-21T11:44:57;9.20;99.90
14995;DHT22;7593;49.006;8.372;2023-11-21T11:47:26;9.20;99.90
14995;DHT22;7593;49.006;8.372;2023-11-21T11:50:00;9.20;99.90
14995;DHT22;7593;49.006;8.372;2023-11-21T11:52:34;9.20;99.90
14995;DHT22;7593;49.006;8.372;2023-11-21T11:55:03;9.30;99.90
14995;DHT22;7593;49.006;8.372;2023-11-21T11:57:30;9.30;99.90
14995;DHT22;7593;49.006;8.372;2023-11-21T12:00:13;9.40;99.90
14995;DHT22;7593;49.006;8.372;2023-11-21T12:02:44;9.40;99.90
14995;DHT22;7593;49.006;8.372;2023-11-21T12:05:13;9.40;99.90
14995;DHT22;7593;49.006;8.372;2023-11-21T12:07:47;9.40;99.90
14995;DHT22;7593;49.006;8.372;2023-11-21T12:10:15;9.40;99.90
14995;DHT22;7593;49.006;8.372;2023-11-21T12:12:47;9.50;99.90
14995;DHT22;7593;49.006;8.372;2023-11-21T12:15:16;9.50;99.90
14995;DHT22;7593;49.006;8.372;2023-11-21T12:17:43;9.50;99.90
14995;DHT22;7593;49.006;8.372;2023-11-21T12:20:11;9.50;99.90
14995;DHT22;7593;49.006;8.372;2023-11-21T12:22:44;9.50;99.90
14995;DHT22;7593;49.006;8.372;2023-11-21T12:25:13;9.50;99.90
14995;DHT22;7593;49.006;8.372;2023-11-21T12:27:42;9.50;99.90
14995;DHT22;7593;49.006;8.372;2023-11-21T12:30:11;9.50;99.90
14995;DHT22;7593;49.006;8.372;2023-11-21T12:32:40;9.50;99.90
14995;DHT22;7593;49.006;8.372;2023-11-21T12:35:09;9.60;99.90
14995;DHT22;7593;49.006;8.372;2023-11-21T12:37:36;9.60;99.90
14995;DHT22;7593;49.006;8.372;2023-11-21T12:40:05;9.60;99.90
14995;DHT22;7593;49.006;8.372;2023-11-21T12:42:32;9.60;99.90
14995;DHT22;7593;49.006;8.372;2023-11-21T12:45:15;9.70;99.90
14995;DHT22;7593;49.006;8.372;2023-11-21T12:47:47;9.70;99.90
14995;DHT22;7593;49.006;8.372;2023-11-21T12:50:14;9.70;99.90
14995;DHT22;7593;49.006;8.372;2023-11-21T12:52:45;9.70;99.90
14995;DHT22;7593;49.006;8.372;2023-11-21T12:55:15;9.70;99.90
14995;DHT22;7593;49.006;8.372;2023-11-21T12:57:43;9.70;99.90
14995;DHT22;7593;49.006;8.372;2023-11-21T13:00:12;9.70;99.90
14995;DHT22;7593;49.006;8.372;2023-11-21T13:02:54;9.70;99.90
14995;DHT22;7593;49.006;8.372;2023-11-21T13:05:27;9.70;99.90
14995;DHT22;7593;49.006;8.372;2023-11-21T13:07:54;9.60;99.90
14995;DHT22;7593;49.006;8.372;2023-11-21T13:10:24;9.60;99.90
14995;DHT22;7593;49.006;8.372;2023-11-21T13:12:55;9.60;99.90
14995;DHT22;7593;49.006;8.372;2023-11-21T13:15:25;9.70;99.90
14995;DHT22;7593;49.006;8.372;2023-11-21T13:17:54;9.70;99.90
14995;DHT22;7593;49.006;8.372;2023-11-21T13:20:23;9.80;99.90
14995;DHT22;7593;49.006;8.372;2023-11-21T13:22:51;9.80;99.90
14995;DHT22;7593;49.006;8.372;2023-11-21T13:25:20;9.90;99.90
14995;DHT22;7593;49.006;8.372;2023-11-21T13:27:47;9.80;99.90
14995;DHT22;7593;49.006;8.372;2023-11-21T13:30:16;9.80;99.90
14995;DHT22;7593;49.006;8.372;2023-11-21T13:32:44;9.80;99.90
14995;DHT22;7593;49.006;8.372;2023-11-21T13:35:13;9.80;99.90
14995;DHT22;7593;49.006;8.372;2023-11-21T13:37:50;9.80;99.90
14995;DHT22;7593;49.006;8.372;2023-11-21T13:40:22;9.90;99.90
14995;DHT22;7593;49.006;8.372;2023-11-21T13:42:52;9.90;99.90
14995;DHT22;7593;49.006;8.372;2023-11-21T13:45:25;10.00;99.90
14995;DHT22;7593;49.006;8.372;2023-11-21T13:47:53;10.10;99.90
14995;DHT22;7593;49.006;8.372;2023-11-21T13:50:24;10.20;99.90
14995;DHT22;7593;49.006;8.372;2023-11-21T13:52:57;10.30;99.90
14995;DHT22;7593;49.006;8.372;2023-11-21T13:55:25;10.50;99.90
14995;DHT22;7593;49.006;8.372;2023-11-21T13:57:51;10.50;99.90
14995;DHT22;7593;49.006;8.372;2023-11-21T14:00:18;10.50;99.90
14995;DHT22;7593;49.006;8.372;2023-11-21T14:03:12;10.40;99.90
14995;DHT22;7593;49.006;8.372;2023-11-21T14:05:47;10.30;99.90
14995;DHT22;7593;49.006;8.372;2023-11-21T14:08:18;10.20;99.90
14995;DHT22;7593;49.006;8.372;2023-11-21T14:10:46;10.20;99.90
14995;DHT22;7593;49.006;8.372;2023-11-21T14:13:16;10.20;99.90
14995;DHT22;7593;49.006;8.372;2023-11-21T14:15:43;10.20;99.90
14995;DHT22;7593;49.006;8.372;2023-11-21T14:18:11;10.20;99.90
14995;DHT22;7593;49.006;8.372;2023-11-21T14:20:42;10.20;99.90
14995;DHT22;7593;49.006;8.372;2023-11-21T14:23:11;10.20;99.90
14995;DHT22;7593;49.006;8.372;2023-11-21T14:25:38;10.20;99.90
14995;DHT22;7593;49.006;8.372;2023-11-21T14:28:07;10.30;99.90
14995;DHT22;7593;49.006;8.372;2023-11-21T14:30:37;10.30;99.90
14995;DHT22;7593;49.006;8.372;2023-11-21T14:33:05;10.30;99.90
14995;DHT22;7593;49.006;8.372;2023-11-21T14:35:33;10.40;99.90
14995;DHT22;7593;49.006;8.372;2023-11-21T14:38:00;10.40;99.90
14995;DHT22;7593;49.006;8.372;2023-11-21T14:40:31;10.40;99.90
14995;DHT22;7593;49.006;8.372;2023-11-21T14:43:00;10.40;99.90
14995;DHT22;7593;49.006;8.372;2023-11-21T14:45:28;10.40;99.90
14995;DHT22;7593;49.006;8.372;2023-11-21T14:47:55;10.40;99.90
14995;DHT22;7593;49.006;8.372;2023-11-21T14:50:32;10.40;99.90
14995;DHT22;7593;49.006;8.372;2023-11-21T14:53:17;10.30;99.90
14995;DHT22;7593;49.006;8.372;2023-11-21T14:56:05;10.30;99.90
14995;DHT22;7593;49.006;8.372;2023-11-21T14:58:33;10.30;99.90
14995;DHT22;7593;49.006;8.372;2023-11-21T15:01:00;10.30;99.90
14995;DHT22;7593;49.006;8.372;2023-11-21T15:03:27;10.20;99.90
14995;DHT22;7593;49.006;8.372;2023-11-21T15:06:13;10.20;99.90
14995;DHT22;7593;49.006;8.372;2023-11-21T15:08:48;10.10;99.90
14995;DHT22;7593;49.006;8.372;2023-11-21T15:11:20;10.10;99.90
14995;DHT22;7593;49.006;8.372;2023-11-21T15:13:50;10.10;99.90
14995;DHT22;7593;49.006;8.372;2023-11-21T15:16:18;10.00;99.90
14995;DHT22;7593;49.006;8.372;2023-11-21T15:18:44;10.00;99.90
14995;DHT22;7593;49.006;8.372;2023-11-21T15:21:11;10.00;99.90
14995;DHT22;7593;49.006;8.372;2023-11-21T15:23:38;10.00;99.90
14995;DHT22;7593;49.006;8.372;2023-11-21T15:26:06;9.90;99.90
14995;DHT22;7593;49.006;8.372;2023-11-21T15:28:35;9.90;99.90
14995;DHT22;7593;49.006;8.372;2023-11-21T15:31:02;9.80;99.90
14995;DHT22;7593;49.006;8.372;2023-11-21T15:33:29;9.80;99.90
14995;DHT22;7593;49.006;8.372;2023-11-21T15:35:56;9.70;99.90
14995;DHT22;7593;49.006;8.372;2023-11-21T15:38:23;9.70;99.90
14995;DHT22;7593;49.006;8.372;2023-11-21T15:40:50;9.60;99.90
14995;DHT22;7593;49.006;8.372;2023-11-21T15:43:16;9.60;99.90
14995;DHT22;7593;49.006;8.372;2023-11-21T15:45:45;9.50;99.90
14995;DHT22;7593;49.006;8.372;2023-11-21T15:48:12;9.40;99.90
14995;DHT22;7593;49.006;8.372;2023-11-21T15:50:38;9.40;99.90
14995;DHT22;7593;49.006;8.372;2023-11-21T15:53:05;9.40;99.90
14995;DHT22;7593;49.006;8.372;2023-11-21T15:55:32;9.30;99.90
14995;DHT22;7593;49.006;8.372;2023-11-21T15:58:01;9.30;99.90
14995;DHT22;7593;49.006;8.372;2023-11-21T16:00:30;9.20;99.90
14995;DHT22;7593;49.006;8.372;2023-11-21T16:02:58;9.20;99.90
14995;DHT22;7593;49.006;8.372;2023-11-21T16:05:25;9.10;99.90
14995;DHT22;7593;49.006;8.372;2023-11-21T16:07:52;9.10;99.90